JBU1605 KISP-KTPA
Flight info
| Callsign | JBU1605 |
|---|---|
| Flight time | N/A |
| Altitude | 36000 |
| Route | BEADS T320 SARDI RBV Q430 COPES Q75 TEUFL BAAMF DADES1 |
| Aircraft | A320/M-SDE3FGHIRWY/LB1 |
Departure
| Time | 2026-04-28 22:40 |
|---|---|
| Airport | Long Island MacArthur Airport (KISP) |
Arrival
| Time | N/A |
|---|---|
| Airport | Tampa International Airport (KTPA) |
| Time | Latitude | Longitude | Altitude | Speed | Heading |
|---|---|---|---|---|---|
| 2026-04-28 21:59 | 40.79046 | -73.09729 | 96 ft | 0 kts | 180° |
| 2026-04-28 22:31 | 40.79058 | -73.09729 | 94 ft | 2 kts | 178° |
| 2026-04-28 22:31 | 40.79074 | -73.09730 | 94 ft | 2 kts | 176° |
| 2026-04-28 22:31 | 40.79091 | -73.09732 | 94 ft | 2 kts | 168° |
| 2026-04-28 22:32 | 40.79107 | -73.09738 | 95 ft | 2 kts | 135° |
| 2026-04-28 22:32 | 40.79113 | -73.09755 | 94 ft | 1 kts | 90° |
| 2026-04-28 22:32 | 40.79113 | -73.09758 | 94 ft | 0 kts | 89° |
| 2026-04-28 22:35 | 40.79113 | -73.09746 | 94 ft | 5 kts | 90° |
| 2026-04-28 22:35 | 40.79112 | -73.09675 | 96 ft | 11 kts | 90° |
| 2026-04-28 22:36 | 40.79118 | -73.09568 | 95 ft | 12 kts | 69° |
| 2026-04-28 22:36 | 40.79177 | -73.09481 | 95 ft | 14 kts | 45° |
| 2026-04-28 22:36 | 40.79268 | -73.09464 | 95 ft | 14 kts | 339° |
| 2026-04-28 22:36 | 40.79367 | -73.09470 | 95 ft | 15 kts | 1° |
| 2026-04-28 22:37 | 40.79475 | -73.09471 | 97 ft | 16 kts | 360° |
| 2026-04-28 22:37 | 40.79590 | -73.09469 | 97 ft | 17 kts | 1° |
| 2026-04-28 22:37 | 40.79713 | -73.09469 | 95 ft | 18 kts | 359° |
| 2026-04-28 22:37 | 40.79823 | -73.09470 | 95 ft | 16 kts | 0° |
| 2026-04-28 22:38 | 40.79910 | -73.09470 | 95 ft | 12 kts | 360° |
| 2026-04-28 22:38 | 40.79998 | -73.09471 | 95 ft | 13 kts | 360° |
| 2026-04-28 22:38 | 40.80089 | -73.09471 | 97 ft | 13 kts | 359° |
| 2026-04-28 22:38 | 40.80159 | -73.09477 | 101 ft | 7 kts | 338° |
| 2026-04-28 22:39 | 40.80175 | -73.09523 | 100 ft | 6 kts | 265° |
| 2026-04-28 22:39 | 40.80153 | -73.09549 | 101 ft | 0 kts | 226° |
| 2026-04-28 22:39 | 40.80151 | -73.09551 | 101 ft | 2 kts | 226° |
| 2026-04-28 22:39 | 40.80012 | -73.09734 | 101 ft | 65 kts | 224° |
| 2026-04-28 22:40 | 40.79532 | -73.10364 | 100 ft | 126 kts | 225° |
| 2026-04-28 22:40 | 40.78790 | -73.11332 | 202 ft | 163 kts | 224° |
| 2026-04-28 22:40 | 40.78032 | -73.12375 | 847 ft | 154 kts | 224° |
| 2026-04-28 22:40 | 40.77305 | -73.13390 | 1406 ft | 154 kts | 224° |
| 2026-04-28 22:41 | 40.76515 | -73.14486 | 1631 ft | 174 kts | 225° |
| 2026-04-28 22:41 | 40.75637 | -73.15699 | 1769 ft | 191 kts | 225° |
| 2026-04-28 22:41 | 40.74674 | -73.17026 | 1891 ft | 210 kts | 226° |
| 2026-04-28 22:41 | 40.73493 | -73.18286 | 2024 ft | 228 kts | 205° |
| 2026-04-28 22:42 | 40.71969 | -73.19128 | 2161 ft | 248 kts | 208° |
| 2026-04-28 22:42 | 40.70716 | -73.20733 | 2440 ft | 259 kts | 238° |
| 2026-04-28 22:42 | 40.69883 | -73.22856 | 2900 ft | 262 kts | 247° |